Aviation Digital Data Service (ADDS)

Output produced by METARs form (1304 UTC 21 April 2014)
found at http://aviationweather.gov/adds/metars/
 
KSSI 211120Z 2112/2212 34005KT P6SM FEW025 SCT035 
     TEMPO 2112/2116 BKN025 
     FM211600 01010G16KT P6SM SCT040 
     FM212100 04008KT P6SM SKC 
     FM220200 VRB05KT P6SM SKC